Alamota, KS

5:53 PM CDT on October 31, 2014 (GMT -0500)
Hineman Farms | Change Station
CLOSE
Current Station
Personal Weather Station
Location: Dighton, KS
Elevation: 2795 ft
Nearby Weather Stations
Active Advisory: Freeze Warning

Elev 2795 ft 38.43 °N, 100.45 °W | Updated 0 second ago

Clear
Clear
47.7 °F
Feels Like 48 °F
N
0.0
Wind Variable Wind from SSE
Gusts 0.0 mph

Today
High -- | Low -- °F
--% Chance of Precip.
Yesterday
High -- | Low -- °F
Precip. -- in
8:07 AM 6:42 PM
First Quarter, 59% visible
Pressure 30.38 in
Visibility 10.0 miles
Clouds Clear
Windchill 48 °F
Dew Point 23 °F
Humidity 37%
Rainfall 0.00 in
Snow Depth Not available.
UV 1 out of 12
Pollen 1.10 out of 12
Air Quality Not available.
Flu Activity Not available.
METAR KGCK 312154Z 13012G19KT 10SM CLR 11/M08 A3036 RMK AO2 SLP285 T01061078

More Conditions Fewer Conditions

Pressure 30.38 in
Visibility 10.0 miles
Clouds Clear
Windchill 48 °F
Dew Point 23 °F
Humidity 37%
Rainfall 0.00 in
Snow Depth Not available.
UV 1 out of 12
Pollen 1.10 out of 12
Air Quality Not available.
Flu Activity Not available.
METAR KGCK 312154Z 13012G19KT 10SM CLR 11/M08 A3036 RMK AO2 SLP285 T01061078

More Conditions Fewer Conditions

10-Day Weather Forecast

Almanac

Astronomy

Oct. 31, 2014 Rise Set
Actual Time
Civil Twilight
Nautical Twilight
Astronomical Twilight
Moon
Length of Visible Light
Length of Day
Tomorrow will be .
, % of the Moon is Illuminated

Today's Extremes

State Highs State Lows

Community

WunderPhotos

Upload Photos

1,766,770 photos uploaded!

WunderBlogs® & News

Nearby

Air Quality

  Air Quality AQ Index Pollutant
Not available.

Snow Depth

Station Depth Elevation

Earthquake Activity

City Distance Mag. Time & Date
Minimum magnitude displayed is 2.5.

Coastal Water Temperatures

Place Temperature

Nearby Weather Stations